Time;durP1;ratioP1;P1;durP2;ratioP2;P2;SDS_P1;SDS_P2;PMS_P1;PMS_P2;Temp;Humidity;BMP_temperature;BMP_pressure;BME280_temperature;BME280_humidity;BME280_pressure;Samples;Min_cycle;Max_cycle;Signal;HPM_P1;HPM_P2
2023/11/01 00:00:10;;;;;;;;;2.00;2.00;;;;;;;;5100322;27;45284;-76
2023/11/01 00:02:35;;;;;;;;;4.33;3.33;;;;;;;;5099934;27;45238;-76
2023/11/01 00:05:00;;;;;;;;;1.33;1.33;;;;;;;;5099813;27;45312;-76
2023/11/01 00:07:25;;;;;;;;;2.00;2.00;;;;;;;;5099484;27;45406;-77
2023/11/01 00:09:51;;;;;;;;;5.00;3.00;;;;;;;;5100161;27;45492;-76
2023/11/01 00:12:16;;;;;;;;;2.00;2.00;;;;;;;;5099812;27;45478;-77
2023/11/01 00:14:41;;;;;;;;;2.67;2.67;;;;;;;;5099751;27;45284;-76
2023/11/01 00:17:07;;;;;;;;;2.67;2.67;;;;;;;;5099888;27;45346;-77
2023/11/01 00:19:32;;;;;;;;;5.67;5.00;;;;;;;;5100045;27;45305;-77
2023/11/01 00:21:57;;;;;;;;;2.00;1.00;;;;;;;;5099338;27;45345;-77
2023/11/01 00:24:23;;;;;;;;;3.33;3.00;;;;;;;;5099402;27;46308;-76
2023/11/01 00:26:48;;;;;;;;;3.00;3.00;;;;;;;;5098293;27;45324;-77
2023/11/01 00:29:14;;;;;;;;;3.00;3.00;;;;;;;;5091665;27;45382;-77
2023/11/01 00:31:39;;;;;;;;;3.67;3.67;;;;;;;;5079026;28;45320;-76
2023/11/01 00:34:05;;;;;;;;;3.33;3.33;;;;;;;;5079072;28;46486;-76
2023/11/01 00:36:30;;;;;;;;;2.00;2.00;;;;;;;;5078892;28;45308;-76
2023/11/01 00:38:55;;;;;;;;;4.00;3.00;;;;;;;;5077955;28;45878;-76
2023/11/01 00:41:20;;;;;;;;;3.67;3.33;;;;;;;;5078737;28;45349;-77
2023/11/01 00:43:45;;;;;;;;;2.00;2.00;;;;;;;;5078715;28;46683;-77
2023/11/01 00:46:11;;;;;;;;;4.00;3.00;;;;;;;;5079103;28;45367;-77
2023/11/01 00:48:36;;;;;;;;;8.67;8.67;;;;;;;;5082612;28;45405;-77
2023/11/01 00:51:02;;;;;;;;;2.75;2.75;;;;;;;;5082206;28;45438;-77
2023/11/01 00:53:27;;;;;;;;;2.25;2.25;;;;;;;;5082284;28;46045;-76
2023/11/01 00:55:52;;;;;;;;;3.33;2.00;;;;;;;;5082409;28;45261;-76
2023/11/01 00:58:18;;;;;;;;;1.33;0.67;;;;;;;;5082439;28;45194;-77
2023/11/01 01:00:43;;;;;;;;;3.67;2.00;;;;;;;;5082286;28;45139;-76
2023/11/01 01:03:10;;;;;;;;;2.00;2.00;;;;;;;;5082237;28;46233;-77
2023/11/01 01:05:35;;;;;;;;;3.00;3.00;;;;;;;;5081899;28;45204;-76
2023/11/01 01:08:00;;;;;;;;;2.00;1.67;;;;;;;;5082048;28;45295;-77
2023/11/01 01:10:26;;;;;;;;;5.00;4.00;;;;;;;;5082115;28;45137;-76
2023/11/01 01:12:51;;;;;;;;;3.67;3.00;;;;;;;;5082011;28;46118;-76
2023/11/01 01:15:16;;;;;;;;;6.00;2.33;;;;;;;;5082013;28;45326;-76
2023/11/01 01:17:41;;;;;;;;;2.00;2.00;;;;;;;;5082105;28;45569;-76
2023/11/01 01:20:07;;;;;;;;;4.67;3.00;;;;;;;;5081949;28;45297;-77
2023/11/01 01:22:32;;;;;;;;;7.00;5.00;;;;;;;;5081479;28;46309;-76
2023/11/01 01:24:57;;;;;;;;;4.25;2.75;;;;;;;;5081946;28;45420;-76
2023/11/01 01:27:22;;;;;;;;;3.33;2.00;;;;;;;;5082061;28;45579;-76
2023/11/01 01:29:47;;;;;;;;;2.33;2.00;;;;;;;;5094492;27;45384;-76
2023/11/01 01:32:13;;;;;;;;;3.00;3.00;;;;;;;;5101980;27;45890;-76
2023/11/01 01:34:38;;;;;;;;;4.33;2.00;;;;;;;;5100715;27;45365;-77
2023/11/01 01:37:03;;;;;;;;;2.33;2.00;;;;;;;;5102135;27;45318;-77
2023/11/01 01:39:28;;;;;;;;;5.67;3.00;;;;;;;;5102133;27;45356;-77
2023/11/01 01:41:53;;;;;;;;;2.67;2.00;;;;;;;;5101368;27;45309;-76
2023/11/01 01:44:19;;;;;;;;;2.00;2.00;;;;;;;;5101920;27;45409;-76
2023/11/01 01:46:44;;;;;;;;;5.00;4.00;;;;;;;;5100871;27;45489;-76
2023/11/01 01:49:10;;;;;;;;;3.00;3.00;;;;;;;;5102021;27;45487;-76
2023/11/01 01:51:36;;;;;;;;;2.67;1.33;;;;;;;;5101502;27;45405;-77
2023/11/01 01:54:02;;;;;;;;;3.67;2.00;;;;;;;;5102069;27;45353;-76
2023/11/01 01:56:27;;;;;;;;;2.67;2.67;;;;;;;;5102115;27;45361;-76
2023/11/01 01:58:52;;;;;;;;;5.00;3.00;;;;;;;;5100663;27;45265;-76
2023/11/01 02:01:19;;;;;;;;;3.00;2.67;;;;;;;;5101713;27;46470;-77
2023/11/01 02:03:44;;;;;;;;;2.67;1.00;;;;;;;;5101805;27;45262;-76
2023/11/01 02:06:09;;;;;;;;;6.00;3.33;;;;;;;;5087626;27;45286;-76
2023/11/01 02:08:35;;;;;;;;;4.67;3.00;;;;;;;;5081023;28;45198;-77
2023/11/01 02:11:01;;;;;;;;;3.00;3.00;;;;;;;;5081180;28;46003;-76
2023/11/01 02:13:26;;;;;;;;;1.25;1.25;;;;;;;;5080994;28;45439;-76
2023/11/01 02:15:51;;;;;;;;;3.67;3.00;;;;;;;;5081300;28;45293;-76
2023/11/01 02:18:17;;;;;;;;;7.00;3.67;;;;;;;;5080984;28;45359;-76
2023/11/01 02:20:44;;;;;;;;;4.67;2.67;;;;;;;;5080850;28;45361;-77
2023/11/01 02:23:10;;;;;;;;;4.00;3.00;;;;;;;;5081001;28;45300;-76
2023/11/01 02:25:36;;;;;;;;;3.00;2.00;;;;;;;;5080932;28;45375;-77
2023/11/01 02:28:02;;;;;;;;;3.25;3.00;;;;;;;;5080830;28;45350;-76
2023/11/01 02:30:27;;;;;;;;;2.50;2.50;;;;;;;;5098838;27;45225;-76
2023/11/01 02:32:52;;;;;;;;;4.50;3.00;;;;;;;;5101405;27;45208;-76
2023/11/01 02:35:18;;;;;;;;;2.00;2.00;;;;;;;;5100892;27;45284;-76
2023/11/01 02:37:43;;;;;;;;;2.75;1.75;;;;;;;;5100495;27;45242;-77
2023/11/01 02:40:09;;;;;;;;;4.00;4.00;;;;;;;;5099974;27;46242;-76
2023/11/01 02:42:35;;;;;;;;;1.33;1.00;;;;;;;;5100471;27;45274;-76
2023/11/01 02:45:00;;;;;;;;;1.00;1.00;;;;;;;;5101272;27;45274;-76
2023/11/01 02:47:25;;;;;;;;;3.33;2.67;;;;;;;;5100843;27;45425;-76
2023/11/01 02:49:50;;;;;;;;;2.00;2.00;;;;;;;;5101027;27;45208;-76
2023/11/01 02:52:16;;;;;;;;;3.67;3.00;;;;;;;;5100513;27;45245;-76
2023/11/01 02:54:41;;;;;;;;;2.00;2.00;;;;;;;;5100997;27;45451;-76
2023/11/01 02:57:06;;;;;;;;;2.00;1.75;;;;;;;;5100923;27;45373;-75
2023/11/01 02:59:31;;;;;;;;;2.00;1.00;;;;;;;;5100863;27;45388;-75
2023/11/01 03:01:57;;;;;;;;;2.67;2.67;;;;;;;;5100683;27;45293;-76
2023/11/01 03:04:22;;;;;;;;;1.67;0.00;;;;;;;;5100998;27;45590;-76
2023/11/01 03:06:47;;;;;;;;;3.67;2.00;;;;;;;;5100219;27;45338;-76
2023/11/01 03:09:12;;;;;;;;;8.33;4.00;;;;;;;;5100430;27;45423;-76
2023/11/01 03:11:41;;;;;;;;;0.00;0.00;;;;;;;;5100655;27;45311;-76
2023/11/01 03:14:06;;;;;;;;;2.00;2.00;;;;;;;;5100921;27;45400;-76
2023/11/01 03:16:34;;;;;;;;;2.00;1.75;;;;;;;;5100561;27;45277;-76
2023/11/01 03:18:59;;;;;;;;;1.00;1.00;;;;;;;;5100545;27;45392;-76
2023/11/01 03:21:24;;;;;;;;;2.33;2.00;;;;;;;;5100234;27;45222;-76
2023/11/01 03:23:50;;;;;;;;;1.00;1.00;;;;;;;;5100673;27;45371;-77
2023/11/01 03:26:15;;;;;;;;;1.00;1.00;;;;;;;;5100452;27;45480;-76
2023/11/01 03:28:40;;;;;;;;;2.67;2.67;;;;;;;;5097094;27;45207;-76
2023/11/01 03:31:06;;;;;;;;;2.67;1.67;;;;;;;;5079984;28;45444;-76
2023/11/01 03:33:31;;;;;;;;;1.75;1.00;;;;;;;;5080120;28;45149;-76
2023/11/01 03:35:56;;;;;;;;;2.00;2.00;;;;;;;;5079699;28;45284;-76
2023/11/01 03:38:22;;;;;;;;;3.00;1.75;;;;;;;;5079578;28;45866;-77
2023/11/01 03:40:47;;;;;;;;;3.00;3.00;;;;;;;;5079924;28;45377;-77
2023/11/01 03:43:12;;;;;;;;;1.00;1.00;;;;;;;;5080039;28;45373;-76
2023/11/01 03:45:38;;;;;;;;;2.00;2.00;;;;;;;;5079561;28;45527;-77
2023/11/01 03:48:03;;;;;;;;;1.67;1.00;;;;;;;;5079185;28;46044;-76
2023/11/01 03:50:28;;;;;;;;;3.67;2.33;;;;;;;;5079713;28;45302;-76
2023/11/01 03:52:53;;;;;;;;;2.00;2.00;;;;;;;;5079758;28;45586;-77
2023/11/01 03:55:18;;;;;;;;;1.00;0.33;;;;;;;;5079525;28;45382;-76
2023/11/01 03:57:44;;;;;;;;;1.00;1.00;;;;;;;;5079622;28;46275;-76
2023/11/01 04:00:09;;;;;;;;;3.00;2.67;;;;;;;;5078325;28;45383;-76
2023/11/01 04:02:34;;;;;;;;;1.67;1.33;;;;;;;;5079798;28;45254;-76
2023/11/01 04:04:59;;;;;;;;;3.50;1.00;;;;;;;;5079404;28;45302;-76
2023/11/01 04:07:25;;;;;;;;;4.33;3.00;;;;;;;;5078900;28;45487;-76
2023/11/01 04:09:50;;;;;;;;;1.00;1.00;;;;;;;;5079609;28;45414;-76
2023/11/01 04:12:15;;;;;;;;;5.67;4.00;;;;;;;;5079750;28;45325;-77
2023/11/01 04:14:40;;;;;;;;;1.33;1.00;;;;;;;;5079270;28;45649;-76
2023/11/01 04:17:05;;;;;;;;;2.67;1.00;;;;;;;;5079414;28;45456;-76
2023/11/01 04:19:31;;;;;;;;;3.00;1.00;;;;;;;;5078207;28;45598;-77
2023/11/01 04:21:56;;;;;;;;;2.67;1.67;;;;;;;;5080367;28;45215;-76
2023/11/01 04:24:21;;;;;;;;;1.67;1.00;;;;;;;;5082870;28;45270;-76
2023/11/01 04:26:46;;;;;;;;;2.33;2.00;;;;;;;;5082659;28;46215;-76
2023/11/01 04:29:12;;;;;;;;;0.67;0.67;;;;;;;;5090614;27;45298;-77
2023/11/01 04:31:38;;;;;;;;;1.67;0.67;;;;;;;;5103335;27;45277;-77
2023/11/01 04:34:03;;;;;;;;;2.00;1.00;;;;;;;;5103126;27;45306;-76
2023/11/01 04:36:29;;;;;;;;;2.00;2.00;;;;;;;;5102765;27;46088;-76
2023/11/01 04:38:55;;;;;;;;;2.67;1.67;;;;;;;;5103257;27;45325;-76
2023/11/01 04:41:20;;;;;;;;;2.67;2.67;;;;;;;;5103347;27;45271;-76
2023/11/01 04:43:47;;;;;;;;;1.00;1.00;;;;;;;;5102826;27;45541;-76
2023/11/01 04:46:13;;;;;;;;;0.00;0.00;;;;;;;;5102872;27;45327;-76
2023/11/01 04:48:38;;;;;;;;;1.00;0.67;;;;;;;;5102814;27;45349;-76
2023/11/01 04:51:04;;;;;;;;;1.67;1.67;;;;;;;;5102779;27;45417;-76
2023/11/01 04:53:29;;;;;;;;;1.75;1.75;;;;;;;;5102906;27;45365;-76
2023/11/01 04:55:54;;;;;;;;;1.33;1.33;;;;;;;;5102800;27;45567;-76
2023/11/01 04:58:19;;;;;;;;;0.33;0.00;;;;;;;;5102848;27;45272;-76
2023/11/01 05:00:44;;;;;;;;;2.00;2.00;;;;;;;;5102899;27;45289;-76
2023/11/01 05:03:10;;;;;;;;;2.00;1.67;;;;;;;;5102731;27;45329;-76
2023/11/01 05:05:35;;;;;;;;;1.67;1.67;;;;;;;;5102337;27;45937;-76
2023/11/01 05:08:00;;;;;;;;;2.00;2.00;;;;;;;;5102457;27;45391;-76
2023/11/01 05:10:26;;;;;;;;;4.00;3.00;;;;;;;;5102692;27;45357;-76
2023/11/01 05:12:51;;;;;;;;;1.00;1.00;;;;;;;;5102787;27;45466;-76
2023/11/01 05:15:16;;;;;;;;;2.33;1.33;;;;;;;;5102425;27;45234;-76
2023/11/01 05:17:42;;;;;;;;;2.00;1.00;;;;;;;;5102538;27;45308;-76
2023/11/01 05:20:07;;;;;;;;;0.00;0.00;;;;;;;;5102623;27;45205;-76
2023/11/01 05:22:33;;;;;;;;;1.00;1.00;;;;;;;;5102184;27;45205;-76
2023/11/01 05:24:59;;;;;;;;;1.50;1.25;;;;;;;;5102170;27;46399;-76
2023/11/01 05:27:24;;;;;;;;;1.50;1.50;;;;;;;;5102307;27;45319;-77
2023/11/01 05:29:49;;;;;;;;;3.00;2.00;;;;;;;;5089285;27;45211;-76
2023/11/01 05:32:15;;;;;;;;;3.67;2.33;;;;;;;;5081695;28;45213;-77
2023/11/01 05:34:40;;;;;;;;;0.75;0.75;;;;;;;;5081498;28;45228;-76
2023/11/01 05:37:09;;;;;;;;;3.00;3.00;;;;;;;;5081588;28;45334;-76
2023/11/01 05:39:34;;;;;;;;;2.67;2.67;;;;;;;;5081894;28;45476;-76
2023/11/01 05:41:59;;;;;;;;;0.25;0.25;;;;;;;;5081731;28;45341;-76
2023/11/01 05:44:24;;;;;;;;;0.67;0.67;;;;;;;;5081509;28;45381;-76
2023/11/01 05:46:53;;;;;;;;;1.50;1.25;;;;;;;;5081389;28;45374;-77
2023/11/01 05:49:20;;;;;;;;;2.67;1.33;;;;;;;;5081518;28;45308;-76
2023/11/01 05:51:45;;;;;;;;;1.75;1.25;;;;;;;;5081203;28;45164;-77
2023/11/01 05:54:10;;;;;;;;;2.33;1.67;;;;;;;;5081471;28;46478;-76
2023/11/01 05:56:35;;;;;;;;;1.00;1.00;;;;;;;;5081459;28;45332;-76
2023/11/01 05:59:00;;;;;;;;;0.25;0.25;;;;;;;;5081640;28;45305;-76
2023/11/01 06:01:26;;;;;;;;;1.00;1.00;;;;;;;;5081248;28;45260;-76
2023/11/01 06:03:56;;;;;;;;;2.00;1.33;;;;;;;;5081115;28;45359;-76
2023/11/01 06:06:21;;;;;;;;;3.00;3.00;;;;;;;;5079554;28;45491;-76
2023/11/01 06:08:46;;;;;;;;;1.33;1.33;;;;;;;;5081390;28;45771;-76
2023/11/01 06:11:12;;;;;;;;;1.00;1.00;;;;;;;;5080825;28;45203;-76
2023/11/01 06:13:37;;;;;;;;;4.00;2.33;;;;;;;;5080812;28;45573;-76
2023/11/01 06:16:04;;;;;;;;;2.00;2.00;;;;;;;;5081124;28;45348;-76
2023/11/01 06:18:32;;;;;;;;;0.75;0.75;;;;;;;;5081170;28;45405;-76
2023/11/01 06:20:58;;;;;;;;;1.25;1.25;;;;;;;;5076568;28;45582;-77
2023/11/01 06:23:23;;;;;;;;;1.50;1.50;;;;;;;;5060610;28;45362;-76
2023/11/01 06:25:48;;;;;;;;;2.25;1.00;;;;;;;;5060642;28;45229;-76
2023/11/01 06:28:14;;;;;;;;;1.50;1.00;;;;;;;;5060828;28;45431;-76
2023/11/01 06:30:39;;;;;;;;;2.00;0.25;;;;;;;;5100405;27;45327;-76
2023/11/01 06:33:05;;;;;;;;;3.25;1.50;;;;;;;;5101113;27;45332;-76
2023/11/01 06:35:30;;;;;;;;;1.50;1.50;;;;;;;;5100052;27;45493;-76
2023/11/01 06:37:55;;;;;;;;;1.25;1.25;;;;;;;;5101136;27;45560;-77
2023/11/01 06:40:20;;;;;;;;;2.00;1.00;;;;;;;;5101192;27;45439;-75
2023/11/01 06:42:45;;;;;;;;;3.33;3.00;;;;;;;;5100762;27;45253;-75
2023/11/01 06:45:11;;;;;;;;;3.25;2.00;;;;;;;;5099279;27;45245;-74
2023/11/01 06:47:36;;;;;;;;;1.33;1.33;;;;;;;;5100775;27;45277;-74
2023/11/01 06:50:02;;;;;;;;;1.75;1.75;;;;;;;;5100801;27;45486;-74
2023/11/01 06:52:27;;;;;;;;;3.33;2.33;;;;;;;;5100430;27;46127;-74
2023/11/01 06:54:52;;;;;;;;;0.75;0.75;;;;;;;;5100490;27;45265;-74
2023/11/01 06:57:17;;;;;;;;;1.25;1.25;;;;;;;;5100921;27;45558;-74
2023/11/01 06:59:43;;;;;;;;;2.00;0.75;;;;;;;;5100797;27;45286;-74
2023/11/01 07:02:08;;;;;;;;;2.00;2.00;;;;;;;;5095235;27;45697;-75
2023/11/01 07:04:34;;;;;;;;;2.25;2.25;;;;;;;;5069507;28;45438;-75
2023/11/01 07:06:59;;;;;;;;;0.75;0.25;;;;;;;;5061854;28;45359;-74
2023/11/01 07:09:24;;;;;;;;;1.50;0.25;;;;;;;;5059985;28;45613;-75
2023/11/01 07:11:49;;;;;;;;;0.75;0.75;;;;;;;;5059946;28;45453;-75
2023/11/01 07:14:14;;;;;;;;;3.67;2.33;;;;;;;;5059870;28;45138;-75
2023/11/01 07:16:41;;;;;;;;;3.33;3.33;;;;;;;;5059975;28;45599;-74
2023/11/01 07:19:07;;;;;;;;;2.00;1.00;;;;;;;;5058749;28;45479;-74
2023/11/01 07:21:32;;;;;;;;;4.33;2.00;;;;;;;;5059323;28;45502;-75
2023/11/01 07:23:57;;;;;;;;;2.33;2.33;;;;;;;;5059744;28;45398;-76
2023/11/01 07:26:22;;;;;;;;;2.00;2.00;;;;;;;;5059839;28;45348;-76
2023/11/01 07:28:47;;;;;;;;;1.50;1.50;;;;;;;;5068256;27;45315;-75
2023/11/01 07:31:13;;;;;;;;;3.33;3.33;;;;;;;;5100437;27;45550;-75
2023/11/01 07:33:38;;;;;;;;;3.67;2.67;;;;;;;;5100340;27;45445;-75
2023/11/01 07:36:04;;;;;;;;;3.00;1.33;;;;;;;;5100069;27;45419;-76
2023/11/01 07:38:29;;;;;;;;;5.33;5.33;;;;;;;;5096282;27;45476;-76
2023/11/01 07:40:54;;;;;;;;;1.00;1.00;;;;;;;;5078791;28;45393;-76
2023/11/01 07:43:20;;;;;;;;;2.00;0.67;;;;;;;;5079766;28;45309;-77
2023/11/01 07:45:45;;;;;;;;;0.67;0.67;;;;;;;;5084087;27;45377;-76
2023/11/01 07:48:10;;;;;;;;;1.00;1.00;;;;;;;;5069437;27;45236;-76
2023/11/01 07:50:38;;;;;;;;;0.25;0.25;;;;;;;;5059023;28;45383;-75
2023/11/01 07:53:03;;;;;;;;;0.25;0.25;;;;;;;;5059450;28;45313;-75
2023/11/01 07:55:29;;;;;;;;;1.33;1.33;;;;;;;;5059655;28;45247;-77
2023/11/01 07:57:55;;;;;;;;;6.00;4.33;;;;;;;;5062197;28;45555;-76
2023/11/01 08:00:20;;;;;;;;;7.67;6.33;;;;;;;;5062710;28;45339;-76
2023/11/01 08:02:45;;;;;;;;;2.67;1.33;;;;;;;;5061970;28;45323;-76
2023/11/01 08:05:10;;;;;;;;;3.33;3.00;;;;;;;;5062395;28;45308;-76
2023/11/01 08:07:36;;;;;;;;;2.33;2.33;;;;;;;;5062237;28;45370;-76
2023/11/01 08:10:01;;;;;;;;;2.25;1.25;;;;;;;;5062361;28;45799;-76
2023/11/01 08:12:27;;;;;;;;;0.00;0.00;;;;;;;;5061019;28;45397;-76
2023/11/01 08:14:52;;;;;;;;;1.25;1.25;;;;;;;;5062807;28;45430;-76
2023/11/01 08:17:18;;;;;;;;;7.67;3.67;;;;;;;;5062715;28;45433;-76
2023/11/01 08:19:43;;;;;;;;;4.25;4.00;;;;;;;;5062512;28;46534;-76
2023/11/01 08:22:12;;;;;;;;;1.75;1.00;;;;;;;;5062374;28;45401;-76
2023/11/01 08:24:38;;;;;;;;;0.25;0.25;;;;;;;;5078015;28;45365;-76
2023/11/01 08:27:03;;;;;;;;;0.50;0.50;;;;;;;;5066537;28;45295;-76
2023/11/01 08:29:28;;;;;;;;;4.00;2.00;;;;;;;;5082243;27;45292;-76
2023/11/01 08:31:54;;;;;;;;;1.50;1.50;;;;;;;;5103244;27;45282;-76
2023/11/01 08:34:19;;;;;;;;;1.50;1.50;;;;;;;;5086895;27;45281;-78
2023/11/01 08:36:45;;;;;;;;;2.25;2.00;;;;;;;;5073828;28;45399;-77
2023/11/01 08:39:10;;;;;;;;;2.67;1.33;;;;;;;;5079155;28;46428;-75
2023/11/01 08:41:36;;;;;;;;;1.25;1.25;;;;;;;;5082418;28;45358;-76
2023/11/01 08:44:01;;;;;;;;;0.00;0.00;;;;;;;;5070473;28;45255;-76
2023/11/01 08:46:26;;;;;;;;;1.33;1.00;;;;;;;;5061248;28;45345;-77
2023/11/01 08:48:51;;;;;;;;;2.00;2.00;;;;;;;;5061351;28;46289;-76
2023/11/01 08:51:16;;;;;;;;;25.67;20.00;;;;;;;;5076244;28;45227;-76
2023/11/01 08:53:42;;;;;;;;;10.67;7.00;;;;;;;;5066500;28;45354;-77
2023/11/01 08:56:07;;;;;;;;;4.33;2.67;;;;;;;;5061222;28;45402;-77
2023/11/01 08:58:33;;;;;;;;;3.33;2.00;;;;;;;;5061025;28;45397;-77
2023/11/01 09:00:58;;;;;;;;;1.50;1.00;;;;;;;;5060126;28;45393;-77
2023/11/01 09:03:25;;;;;;;;;1.50;1.50;;;;;;;;5061437;28;45526;-77
2023/11/01 09:05:51;;;;;;;;;0.00;0.00;;;;;;;;5060758;28;45387;-76
2023/11/01 09:08:16;;;;;;;;;4.00;3.00;;;;;;;;5060860;28;46221;-77
2023/11/01 09:10:41;;;;;;;;;3.00;1.25;;;;;;;;5060184;28;45720;-77
2023/11/01 09:13:07;;;;;;;;;2.75;2.00;;;;;;;;5061228;28;45268;-77
2023/11/01 09:15:33;;;;;;;;;1.25;1.25;;;;;;;;5060501;28;45498;-77
2023/11/01 09:17:58;;;;;;;;;1.00;1.00;;;;;;;;5060652;28;45327;-77
2023/11/01 09:20:23;;;;;;;;;2.75;1.00;;;;;;;;5060270;28;45314;-76
2023/11/01 09:22:48;;;;;;;;;1.00;1.00;;;;;;;;5061215;28;45338;-77
2023/11/01 09:25:13;;;;;;;;;2.00;1.00;;;;;;;;5060773;28;45967;-76
2023/11/01 09:27:39;;;;;;;;;1.75;0.25;;;;;;;;5060816;28;45419;-76
2023/11/01 09:30:04;;;;;;;;;0.00;0.00;;;;;;;;5090241;27;45661;-77
2023/11/01 09:32:29;;;;;;;;;1.00;0.00;;;;;;;;5101953;27;45353;-76
2023/11/01 09:34:55;;;;;;;;;1.75;1.75;;;;;;;;5101679;27;45747;-76
2023/11/01 09:37:21;;;;;;;;;0.75;0.75;;;;;;;;5101360;27;45506;-75
2023/11/01 09:39:46;;;;;;;;;0.00;0.00;;;;;;;;5076429;27;45555;-76
2023/11/01 09:42:19;;;;;;;;;7.33;6.00;;;;;;;;5064441;28;45525;-76
2023/11/01 09:44:46;;;;;;;;;1.33;1.00;;;;;;;;5070420;28;45502;-77
2023/11/01 09:47:13;;;;;;;;;14.33;12.00;;;;;;;;5071786;28;45346;-76
2023/11/01 09:49:38;;;;;;;;;1.75;1.75;;;;;;;;5075712;28;45441;-75
2023/11/01 09:52:05;;;;;;;;;3.00;0.50;;;;;;;;5071769;28;45370;-76
2023/11/01 09:54:30;;;;;;;;;1.50;0.75;;;;;;;;5060676;28;45637;-76
2023/11/01 09:56:56;;;;;;;;;6.00;2.75;;;;;;;;5060503;28;46146;-76
2023/11/01 09:59:22;;;;;;;;;2.25;1.00;;;;;;;;5060322;28;45422;-76
2023/11/01 10:01:47;;;;;;;;;1.25;0.75;;;;;;;;5061077;28;45330;-75
2023/11/01 10:04:13;;;;;;;;;1.75;1.75;;;;;;;;5060223;28;45280;-76
2023/11/01 10:06:38;;;;;;;;;1.25;1.25;;;;;;;;5060180;28;45378;-75
2023/11/01 10:09:04;;;;;;;;;4.00;3.00;;;;;;;;5068944;28;45476;-74
2023/11/01 10:11:31;;;;;;;;;15.33;11.00;;;;;;;;5069323;28;45473;-76
2023/11/01 10:13:56;;;;;;;;;2.25;1.50;;;;;;;;5064581;28;45583;-75
2023/11/01 10:16:21;;;;;;;;;3.00;3.00;;;;;;;;5077023;27;46102;-75
2023/11/01 10:18:47;;;;;;;;;3.00;2.00;;;;;;;;5071221;27;45790;-75
2023/11/01 10:21:13;;;;;;;;;2.25;1.25;;;;;;;;5057271;28;45734;-75
2023/11/01 10:23:38;;;;;;;;;6.25;4.75;;;;;;;;5073163;27;45586;-74
2023/11/01 10:26:04;;;;;;;;;3.25;1.50;;;;;;;;5080098;27;46051;-76
2023/11/01 10:28:31;;;;;;;;;0.25;0.00;;;;;;;;5081940;27;45349;-76
2023/11/01 10:30:56;;;;;;;;;1.50;1.50;;;;;;;;5084923;27;45633;-76
2023/11/01 10:33:22;;;;;;;;;3.00;3.00;;;;;;;;5079575;27;45658;-75
2023/11/01 10:36:00;;;;;;;;;12.00;7.00;;;;;;;;5078477;28;45483;-75
2023/11/01 10:38:26;;;;;;;;;0.50;0.50;;;;;;;;5087709;27;45394;-75
2023/11/01 10:40:51;;;;;;;;;0.00;0.00;;;;;;;;5100315;27;45333;-75
2023/11/01 10:43:18;;;;;;;;;1.00;1.00;;;;;;;;5099656;27;45386;-75
2023/11/01 10:45:45;;;;;;;;;0.00;0.00;;;;;;;;5070270;27;45356;-75
2023/11/01 10:48:11;;;;;;;;;4.00;2.50;;;;;;;;5061503;27;45393;-76
2023/11/01 10:50:36;;;;;;;;;1.50;1.50;;;;;;;;5057631;28;45418;-76
2023/11/01 10:53:03;;;;;;;;;3.50;1.25;;;;;;;;5062661;27;45474;-76
2023/11/01 10:55:30;;;;;;;;;1.00;1.00;;;;;;;;5073597;28;45617;-77
2023/11/01 10:57:56;;;;;;;;;0.00;0.00;;;;;;;;5081642;27;45336;-76
2023/11/01 11:00:26;;;;;;;;;5.25;3.75;;;;;;;;5081868;28;45460;-77
2023/11/01 11:02:55;;;;;;;;;0.00;0.00;;;;;;;;5081791;28;45236;-76
2023/11/01 11:05:25;;;;;;;;;3.75;2.50;;;;;;;;5069254;28;45391;-75
2023/11/01 11:07:52;;;;;;;;;3.75;3.00;;;;;;;;5060311;28;45334;-75
2023/11/01 11:10:27;;;;;;;;;3.00;2.00;;;;;;;;5062617;28;45236;-76
2023/11/01 11:13:16;;;;;;;;;1.00;1.00;;;;;;;;5061614;28;45548;-77
2023/11/01 11:15:48;;;;;;;;;0.50;0.50;;;;;;;;5063633;28;45435;-78
2023/11/01 11:18:13;;;;;;;;;1.00;1.00;;;;;;;;5062256;28;45242;-77
2023/11/01 11:20:39;;;;;;;;;0.25;0.00;;;;;;;;5060258;28;45337;-76
2023/11/01 11:23:13;;;;;;;;;0.00;0.00;;;;;;;;5062821;28;45296;-78
2023/11/01 11:25:38;;;;;;;;;44.00;33.00;;;;;;;;5070175;28;45256;-76
2023/11/01 11:28:05;;;;;;;;;0.00;0.00;;;;;;;;5073764;28;45555;-76
2023/11/01 11:31:08;;;;;;;;;1.75;1.50;;;;;;;;5093535;27;45442;-76
2023/11/01 11:33:34;;;;;;;;;0.75;0.00;;;;;;;;5082503;28;45487;-77
2023/11/01 11:36:18;;;;;;;;;0.00;0.00;;;;;;;;5079795;27;46280;-75
2023/11/01 11:38:56;;;;;;;;;1.50;1.50;;;;;;;;5074278;28;45373;-77
2023/11/01 11:41:26;;;;;;;;;1.50;1.50;;;;;;;;5066674;27;45520;-76
2023/11/01 11:44:01;;;;;;;;;0.00;0.00;;;;;;;;5058977;28;45570;-76
2023/11/01 11:46:27;;;;;;;;;4.50;1.50;;;;;;;;5075576;27;46222;-76
2023/11/01 11:48:53;;;;;;;;;1.00;1.00;;;;;;;;5082180;28;45417;-77
2023/11/01 11:51:18;;;;;;;;;0.75;0.75;;;;;;;;5079681;27;45285;-76
2023/11/01 11:53:43;;;;;;;;;0.50;0.50;;;;;;;;5069813;28;45655;-76
2023/11/01 11:56:08;;;;;;;;;1.00;0.00;;;;;;;;5068295;28;45944;-76
2023/11/01 11:58:37;;;;;;;;;2.00;1.00;;;;;;;;5059042;28;45626;-76
2023/11/01 12:01:03;;;;;;;;;0.25;0.00;;;;;;;;5060405;28;45382;-76
2023/11/01 12:03:28;;;;;;;;;0.50;0.50;;;;;;;;5062695;28;45405;-76
2023/11/01 12:05:54;;;;;;;;;0.00;0.00;;;;;;;;5066722;28;45594;-77
2023/11/01 12:08:32;;;;;;;;;4.00;3.00;;;;;;;;5059549;28;45382;-77
2023/11/01 12:10:57;;;;;;;;;3.67;1.67;;;;;;;;5060064;28;45297;-76
2023/11/01 12:13:37;;;;;;;;;4.00;2.00;;;;;;;;5055390;28;45208;-76
2023/11/01 12:16:03;;;;;;;;;1.00;0.75;;;;;;;;5061759;28;46650;-76
2023/11/01 12:18:29;;;;;;;;;1.00;1.00;;;;;;;;5070985;28;45386;-76
2023/11/01 12:20:54;;;;;;;;;3.50;2.00;;;;;;;;5066112;28;45382;-75
2023/11/01 12:23:19;;;;;;;;;0.75;0.75;;;;;;;;5068716;28;45280;-76
2023/11/01 12:25:44;;;;;;;;;1.00;0.00;;;;;;;;5065475;28;46025;-76
2023/11/01 12:28:19;;;;;;;;;3.50;2.25;;;;;;;;5066732;28;45343;-77
2023/11/01 12:30:44;;;;;;;;;6.00;5.00;;;;;;;;5069125;27;45517;-76
2023/11/01 12:33:19;;;;;;;;;3.00;2.00;;;;;;;;5071803;28;45302;-77
2023/11/01 12:35:44;;;;;;;;;3.00;1.25;;;;;;;;5068025;27;46338;-75
2023/11/01 12:38:16;;;;;;;;;0.00;0.00;;;;;;;;5072428;28;45911;-75
2023/11/01 12:40:41;;;;;;;;;2.00;1.00;;;;;;;;5078220;27;45433;-76
2023/11/01 12:43:08;;;;;;;;;0.75;0.75;;;;;;;;5070453;28;45674;-76
2023/11/01 12:45:33;;;;;;;;;0.00;0.00;;;;;;;;5071345;27;45512;-75
2023/11/01 12:47:58;;;;;;;;;0.00;0.00;;;;;;;;5072577;28;45298;-75
2023/11/01 12:50:25;;;;;;;;;0.50;0.50;;;;;;;;5081012;27;45270;-76
2023/11/01 12:52:50;;;;;;;;;3.00;2.25;;;;;;;;5070496;28;45307;-76
2023/11/01 12:55:16;;;;;;;;;2.75;2.50;;;;;;;;5071863;27;46307;-76
2023/11/01 12:57:42;;;;;;;;;0.25;0.25;;;;;;;;5072820;28;45389;-76
2023/11/01 13:00:08;;;;;;;;;1.25;0.00;;;;;;;;5081004;27;45326;-76
2023/11/01 13:02:33;;;;;;;;;1.00;1.00;;;;;;;;5080686;27;45563;-76
2023/11/01 13:04:58;;;;;;;;;1.00;1.00;;;;;;;;5080647;28;45792;-76
2023/11/01 13:07:25;;;;;;;;;1.50;1.00;;;;;;;;5076608;28;45274;-77
2023/11/01 13:09:50;;;;;;;;;1.00;1.00;;;;;;;;5071818;27;45390;-76
2023/11/01 13:12:16;;;;;;;;;2.75;2.00;;;;;;;;5076149;27;45561;-76
2023/11/01 13:14:41;;;;;;;;;1.75;0.75;;;;;;;;5080164;27;46357;-76
2023/11/01 13:17:06;;;;;;;;;1.25;0.75;;;;;;;;5095751;27;45362;-76
2023/11/01 13:19:33;;;;;;;;;1.00;0.25;;;;;;;;5101813;27;45358;-76
2023/11/01 13:21:58;;;;;;;;;1.00;0.75;;;;;;;;5100848;27;45498;-76
2023/11/01 13:24:23;;;;;;;;;1.25;1.00;;;;;;;;5081574;27;46237;-76
2023/11/01 13:26:48;;;;;;;;;1.25;1.00;;;;;;;;5064075;27;47629;-76
2023/11/01 13:29:13;;;;;;;;;1.25;0.00;;;;;;;;5076517;27;45405;-76
2023/11/01 13:31:39;;;;;;;;;1.00;1.00;;;;;;;;5092793;27;45533;-75
2023/11/01 13:34:04;;;;;;;;;3.25;2.50;;;;;;;;5080857;28;46277;-75
2023/11/01 13:36:30;;;;;;;;;2.00;1.50;;;;;;;;5080670;27;45391;-75
2023/11/01 13:38:55;;;;;;;;;1.50;1.50;;;;;;;;5080988;28;45555;-75
2023/11/01 13:41:20;;;;;;;;;3.00;1.25;;;;;;;;5080233;28;45513;-75
2023/11/01 13:43:45;;;;;;;;;3.00;2.00;;;;;;;;5080951;28;46131;-75
2023/11/01 13:46:13;;;;;;;;;3.00;2.00;;;;;;;;5078887;28;45519;-76
2023/11/01 13:48:38;;;;;;;;;5.75;4.00;;;;;;;;5080747;28;45418;-75
2023/11/01 13:51:03;;;;;;;;;5.25;3.75;;;;;;;;5080170;27;45492;-75
2023/11/01 13:53:29;;;;;;;;;25.00;20.00;;;;;;;;5079945;28;46179;-75
2023/11/01 13:55:54;;;;;;;;;7.67;6.67;;;;;;;;5079026;27;45468;-76
2023/11/01 13:58:20;;;;;;;;;0.75;0.75;;;;;;;;5079671;28;45535;-75
2023/11/01 14:00:46;;;;;;;;;1.00;1.00;;;;;;;;5079019;27;45782;-75
2023/11/01 14:03:11;;;;;;;;;8.00;6.00;;;;;;;;5080103;28;45404;-76
2023/11/01 14:05:37;;;;;;;;;29.33;22.67;;;;;;;;5080518;27;45367;-76
2023/11/01 14:08:04;;;;;;;;;2.33;2.33;;;;;;;;5081223;28;45345;-75
2023/11/01 14:10:30;;;;;;;;;12.00;5.33;;;;;;;;5080932;27;45291;-75
2023/11/01 14:12:56;;;;;;;;;1.00;0.75;;;;;;;;5074531;28;45603;-75
2023/11/01 14:15:22;;;;;;;;;9.00;8.00;;;;;;;;5072006;27;45488;-75
2023/11/01 14:17:47;;;;;;;;;5.00;4.50;;;;;;;;5080524;28;45298;-75
2023/11/01 14:20:13;;;;;;;;;2.25;1.00;;;;;;;;5059661;27;45318;-75
2023/11/01 14:22:41;;;;;;;;;1.00;1.00;;;;;;;;5079995;28;45267;-76
2023/11/01 14:25:07;;;;;;;;;6.00;5.67;;;;;;;;5079973;27;45394;-76
2023/11/01 14:27:32;;;;;;;;;1.00;1.00;;;;;;;;5080331;27;45369;-75
2023/11/01 14:29:57;;;;;;;;;20.00;15.67;;;;;;;;5093583;27;45750;-75
2023/11/01 14:32:23;;;;;;;;;1.00;1.00;;;;;;;;5062945;27;45519;-75
2023/11/01 14:34:48;;;;;;;;;1.25;1.25;;;;;;;;5076987;28;45305;-74